createdAt,value
2019-02-15T00:01:12.841Z,21.85
2019-02-15T00:03:40.771Z,21.92
2019-02-15T00:06:08.351Z,21.92
2019-02-15T00:08:36.552Z,21.85
2019-02-15T00:11:05.668Z,21.86
2019-02-15T00:13:34.391Z,21.81
2019-02-15T00:16:02.632Z,21.81
2019-02-15T00:18:54.113Z,21.86
2019-02-15T00:21:25.681Z,21.89
2019-02-15T00:23:53.950Z,21.86
2019-02-15T00:26:22.014Z,21.86
2019-02-15T00:28:50.417Z,21.82
2019-02-15T00:31:20.142Z,21.83
2019-02-15T00:33:48.167Z,21.81
2019-02-15T00:36:16.297Z,21.77
2019-02-15T00:38:44.831Z,21.81
2019-02-15T00:41:13.966Z,21.81
2019-02-15T00:43:42.990Z,21.82
2019-02-15T00:46:30.870Z,21.79
2019-02-15T00:48:59.663Z,21.71
2019-02-15T00:52:05.523Z,21.78
2019-02-15T00:54:52.900Z,21.76
2019-02-15T00:57:41.420Z,21.71
2019-02-15T01:00:19.754Z,21.75
2019-02-15T01:02:59.040Z,21.71
2019-02-15T01:05:50.759Z,21.69
2019-02-15T01:08:37.369Z,21.79
2019-02-15T01:11:10.601Z,21.62
2019-02-15T01:13:39.111Z,21.67
2019-02-15T01:16:09.100Z,21.64
2019-02-15T01:18:38.351Z,21.69
2019-02-15T01:21:06.337Z,21.67
2019-02-15T01:23:34.308Z,21.61
2019-02-15T01:26:27.913Z,21.65
2019-02-15T01:29:05.947Z,21.60
2019-02-15T01:32:09.912Z,21.63
2019-02-15T01:35:00.938Z,21.53
2019-02-15T01:37:39.223Z,21.58
2019-02-15T01:40:13.089Z,21.67
2019-02-15T01:42:45.852Z,21.71
2019-02-15T01:45:33.630Z,21.61
2019-02-15T01:48:01.685Z,21.61
2019-02-15T01:50:30.124Z,21.60
2019-02-15T01:52:58.468Z,21.51
2019-02-15T01:55:27.644Z,21.49
2019-02-15T01:57:57.432Z,21.55
2019-02-15T02:00:29.526Z,21.54
2019-02-15T02:02:58.232Z,21.44
2019-02-15T02:05:26.888Z,21.56
2019-02-15T02:07:57.088Z,21.56
2019-02-15T02:10:26.345Z,21.53
2019-02-15T02:12:55.736Z,21.52
2019-02-15T02:15:24.533Z,21.52
2019-02-15T02:17:53.441Z,21.48
2019-02-15T02:20:22.056Z,21.54
2019-02-15T02:22:49.949Z,21.55
2019-02-15T02:25:18.119Z,21.52
2019-02-15T02:27:47.058Z,21.51
2019-02-15T02:30:16.137Z,21.46
2019-02-15T02:32:44.582Z,21.42
2019-02-15T02:35:12.720Z,21.45
2019-02-15T02:37:41.372Z,21.50
2019-02-15T02:40:09.551Z,21.40
2019-02-15T02:42:38.737Z,21.38
2019-02-15T02:45:06.831Z,21.40
2019-02-15T02:47:34.812Z,21.43
2019-02-15T02:50:04.653Z,21.44
2019-02-15T02:52:32.563Z,21.43
2019-02-15T02:55:00.796Z,21.48
2019-02-15T02:57:28.601Z,21.51
2019-02-15T02:59:56.777Z,21.43
2019-02-15T03:02:43.905Z,21.38
2019-02-15T03:05:12.143Z,21.37
2019-02-15T03:07:40.602Z,21.38
2019-02-15T03:10:08.982Z,20.98
2019-02-15T03:12:36.793Z,21.40
2019-02-15T03:15:05.108Z,21.34
2019-02-15T03:17:33.845Z,21.39
2019-02-15T03:20:02.122Z,21.33
2019-02-15T03:22:29.899Z,21.39
2019-02-15T03:24:58.705Z,21.39
2019-02-15T03:27:27.849Z,21.29
2019-02-15T03:29:56.499Z,21.33
2019-02-15T03:32:25.680Z,21.34
2019-02-15T03:34:53.973Z,21.31
2019-02-15T03:37:54.589Z,21.32
2019-02-15T03:40:33.086Z,21.26
2019-02-15T03:43:01.284Z,21.26
2019-02-15T03:45:29.947Z,21.27
2019-02-15T03:47:58.441Z,21.24
2019-02-15T03:50:29.049Z,21.25
2019-02-15T03:52:57.356Z,21.22
2019-02-15T03:55:26.057Z,21.24
2019-02-15T03:57:54.168Z,21.20
2019-02-15T04:00:21.940Z,21.17
2019-02-15T04:02:50.592Z,21.18
2019-02-15T04:05:18.654Z,21.19
2019-02-15T04:07:47.603Z,21.21
2019-02-15T04:10:15.509Z,21.21
2019-02-15T04:12:43.599Z,21.24
2019-02-15T04:15:11.702Z,21.25
2019-02-15T04:17:39.342Z,21.23
2019-02-15T04:20:08.486Z,21.20
2019-02-15T04:22:36.536Z,21.16
2019-02-15T04:25:04.610Z,21.23
2019-02-15T04:27:32.855Z,21.25
2019-02-15T04:30:01.286Z,21.21
2019-02-15T04:32:29.078Z,21.21
2019-02-15T04:34:57.561Z,21.28
2019-02-15T04:37:26.055Z,21.23
2019-02-15T04:39:54.386Z,21.24
2019-02-15T04:43:59.388Z,21.20
2019-02-15T04:46:27.450Z,21.19
2019-02-15T04:48:55.006Z,21.21
2019-02-15T04:51:22.237Z,21.20
2019-02-15T04:53:50.056Z,21.27
2019-02-15T04:56:17.351Z,21.22
2019-02-15T04:58:45.210Z,21.17
2019-02-15T05:01:12.909Z,21.19
2019-02-15T05:03:41.236Z,21.23
2019-02-15T05:06:09.734Z,21.17
2019-02-15T05:08:37.670Z,21.12
2019-02-15T05:11:06.306Z,21.10
2019-02-15T05:13:35.387Z,21.10
2019-02-15T05:16:03.491Z,21.17
2019-02-15T05:18:32.344Z,21.21
2019-02-15T05:21:00.885Z,21.16
2019-02-15T05:23:29.024Z,21.20
2019-02-15T05:25:57.375Z,21.14
2019-02-15T05:28:25.662Z,21.23
2019-02-15T05:30:53.905Z,21.16
2019-02-15T05:33:21.873Z,21.20
2019-02-15T05:35:50.059Z,21.17
2019-02-15T05:38:18.424Z,21.23
2019-02-15T05:40:46.400Z,21.15
2019-02-15T05:43:14.467Z,21.19
2019-02-15T05:45:43.603Z,21.18
2019-02-15T05:48:11.389Z,21.09
2019-02-15T05:50:39.350Z,21.09
2019-02-15T05:53:07.658Z,21.19
2019-02-15T05:55:35.930Z,21.17
2019-02-15T05:58:04.167Z,21.12
2019-02-15T06:00:37.085Z,21.17
2019-02-15T06:03:02.453Z,21.10
2019-02-15T06:05:30.685Z,21.07
2019-02-15T06:07:58.550Z,21.15
2019-02-15T06:10:26.734Z,21.04
2019-02-15T06:12:54.883Z,21.13
2019-02-15T06:15:23.036Z,21.10
2019-02-15T06:17:51.353Z,21.05
2019-02-15T06:20:19.616Z,21.08
2019-02-15T06:22:48.644Z,20.94
2019-02-15T06:25:17.939Z,21.03
2019-02-15T06:27:46.267Z,21.02
2019-02-15T06:30:14.621Z,21.04
2019-02-15T06:32:42.920Z,20.68
2019-02-15T06:35:13.192Z,21.09
2019-02-15T06:37:41.243Z,21.04
2019-02-15T06:40:09.260Z,21.05
2019-02-15T06:42:37.805Z,21.04
2019-02-15T06:45:05.896Z,21.03
2019-02-15T06:47:33.889Z,21.02
2019-02-15T06:50:01.929Z,20.89
2019-02-15T06:52:30.048Z,20.86
2019-02-15T06:54:58.052Z,21.01
2019-02-15T06:57:26.793Z,21.01
2019-02-15T07:00:30.135Z,21.07
2019-02-15T07:03:04.689Z,21.10
2019-02-15T07:05:35.032Z,21.12
2019-02-15T07:08:03.749Z,21.17
2019-02-15T07:10:31.979Z,21.15
2019-02-15T07:13:01.178Z,21.13
2019-02-15T07:15:33.695Z,21.15
2019-02-15T07:17:59.398Z,21.18
2019-02-15T07:20:27.681Z,21.13
2019-02-15T07:22:56.572Z,21.09
2019-02-15T07:25:24.903Z,21.07
2019-02-15T07:27:54.090Z,21.21
2019-02-15T07:30:23.519Z,21.21
2019-02-15T07:32:52.603Z,21.09
2019-02-15T07:35:20.789Z,21.00
2019-02-15T07:37:49.870Z,21.04
2019-02-15T07:40:18.163Z,21.17
2019-02-15T07:44:34.532Z,21.66
2019-02-15T07:48:13.741Z,21.59
2019-02-15T07:50:41.175Z,21.63
2019-02-15T07:53:09.215Z,21.68
2019-02-15T07:55:36.461Z,21.63
2019-02-15T07:58:05.139Z,21.67
2019-02-15T08:00:32.934Z,21.65
2019-02-15T08:03:01.093Z,21.58
2019-02-15T08:05:29.149Z,21.67
2019-02-15T08:07:58.167Z,21.77
2019-02-15T08:10:26.835Z,21.80
2019-02-15T08:12:55.280Z,21.84
2019-02-15T08:15:23.207Z,22.02
2019-02-15T08:17:51.588Z,22.01
2019-02-15T08:20:19.465Z,21.79
2019-02-15T08:22:48.237Z,21.73
2019-02-15T08:25:16.852Z,22.08
2019-02-15T08:27:45.930Z,22.08
2019-02-15T08:30:14.860Z,21.97
2019-02-15T08:32:42.778Z,21.94
2019-02-15T08:35:10.997Z,21.95
2019-02-15T08:37:39.742Z,22.10
2019-02-15T08:40:08.725Z,22.19
2019-02-15T08:42:37.446Z,22.30
2019-02-15T08:45:07.890Z,22.25
2019-02-15T08:47:36.501Z,22.24
2019-02-15T08:50:04.971Z,22.24
2019-02-15T08:52:33.729Z,22.48
2019-02-15T08:55:01.944Z,22.57
2019-02-15T08:57:31.133Z,22.65
2019-02-15T08:59:59.600Z,22.73
2019-02-15T09:02:27.885Z,22.80
2019-02-15T09:04:57.053Z,22.79
2019-02-15T09:07:25.062Z,22.98
2019-02-15T09:09:54.102Z,23.07
2019-02-15T09:12:22.232Z,22.97
2019-02-15T09:14:50.476Z,23.05
2019-02-15T09:17:18.775Z,23.09
2019-02-15T09:19:47.091Z,23.24
2019-02-15T09:22:15.135Z,23.33
2019-02-15T09:24:43.391Z,23.37
2019-02-15T09:27:23.722Z,23.43
2019-02-15T09:29:53.430Z,23.46
2019-02-15T09:32:23.274Z,23.38
2019-02-15T09:34:51.539Z,23.46
2019-02-15T09:37:19.552Z,23.45
2019-02-15T09:42:28.651Z,23.48
2019-02-15T09:44:56.202Z,23.48
2019-02-15T09:47:23.970Z,23.54
2019-02-15T09:49:51.841Z,23.54
2019-02-15T09:52:19.423Z,23.67
2019-02-15T09:54:47.453Z,23.67
2019-02-15T09:57:14.745Z,23.74
2019-02-15T09:59:42.602Z,23.82
2019-02-15T10:02:10.544Z,23.95
2019-02-15T10:04:38.951Z,23.94
2019-02-15T10:07:07.073Z,23.94
2019-02-15T10:09:35.398Z,23.87
2019-02-15T10:12:04.642Z,23.93
2019-02-15T10:14:33.475Z,23.88
2019-02-15T10:17:02.107Z,23.98
2019-02-15T10:19:30.513Z,23.95
2019-02-15T10:22:00.263Z,24.00
2019-02-15T10:24:29.072Z,23.91
2019-02-15T10:26:57.444Z,24.01
2019-02-15T10:29:25.288Z,24.09
2019-02-15T10:31:53.910Z,24.07
2019-02-15T10:34:21.730Z,24.10
2019-02-15T10:36:50.357Z,24.07
2019-02-15T10:39:18.383Z,24.13
2019-02-15T10:41:47.497Z,24.12
2019-02-15T10:44:15.688Z,24.15
2019-02-15T10:46:44.663Z,24.20
2019-02-15T10:49:13.136Z,24.18
2019-02-15T10:51:43.064Z,24.22
2019-02-15T10:54:10.806Z,24.12
2019-02-15T10:56:38.871Z,23.88
2019-02-15T10:59:07.149Z,23.63
2019-02-15T11:01:36.742Z,23.50
2019-02-15T11:04:05.709Z,23.40
2019-02-15T11:06:33.646Z,23.35
2019-02-15T11:09:02.303Z,23.21
2019-02-15T11:11:31.082Z,23.16
2019-02-15T11:14:00.242Z,23.14
2019-02-15T11:16:28.556Z,23.10
2019-02-15T11:18:57.242Z,23.07
2019-02-15T11:21:25.511Z,23.26
2019-02-15T11:23:54.224Z,23.27
2019-02-15T11:26:24.974Z,23.16
2019-02-15T11:28:53.424Z,23.14
2019-02-15T11:31:22.205Z,23.24
2019-02-15T11:33:50.589Z,23.20
2019-02-15T11:36:20.229Z,23.10
2019-02-15T11:38:48.477Z,23.09
2019-02-15T11:41:16.541Z,23.13
2019-02-15T11:43:45.690Z,23.20
2019-02-15T11:46:14.547Z,23.13
2019-02-15T11:48:43.305Z,23.09
2019-02-15T11:51:13.176Z,23.22
2019-02-15T11:53:41.289Z,23.16
2019-02-15T11:56:09.491Z,22.94
2019-02-15T11:58:38.403Z,22.97
2019-02-15T12:01:06.585Z,22.90
2019-02-15T12:03:35.058Z,23.16
2019-02-15T12:06:03.906Z,23.16
2019-02-15T12:08:31.925Z,23.13
2019-02-15T12:10:59.998Z,23.05
2019-02-15T12:13:28.570Z,23.07
2019-02-15T12:15:57.390Z,23.07
2019-02-15T12:18:25.091Z,23.02
2019-02-15T12:20:53.698Z,23.01
2019-02-15T12:23:21.944Z,23.08
2019-02-15T12:25:49.886Z,23.01
2019-02-15T12:28:18.124Z,23.19
2019-02-15T12:30:47.970Z,23.19
2019-02-15T12:33:17.041Z,23.31
2019-02-15T12:35:45.289Z,23.22
2019-02-15T12:38:12.770Z,23.22
2019-02-15T12:40:40.852Z,23.20
2019-02-15T12:43:09.061Z,23.26
2019-02-15T12:45:37.576Z,23.23
2019-02-15T12:48:05.796Z,23.24
2019-02-15T12:50:34.231Z,23.26
2019-02-15T12:53:02.173Z,23.36
2019-02-15T12:55:30.998Z,23.41
2019-02-15T12:57:59.620Z,23.38
2019-02-15T13:00:28.467Z,23.29
2019-02-15T13:02:56.628Z,23.48
2019-02-15T13:05:24.782Z,23.49
2019-02-15T13:07:52.802Z,23.55
2019-02-15T13:10:23.162Z,23.60
2019-02-15T13:12:51.127Z,23.68
2019-02-15T13:15:18.937Z,23.76
2019-02-15T13:17:49.095Z,23.82
2019-02-15T13:20:17.751Z,23.83
2019-02-15T13:22:47.383Z,23.93
2019-02-15T13:25:15.614Z,23.90
2019-02-15T13:27:45.108Z,23.94
2019-02-15T13:30:13.061Z,24.04
2019-02-15T13:32:41.836Z,24.06
2019-02-15T13:35:11.747Z,24.06
2019-02-15T13:37:39.814Z,24.06
2019-02-15T13:40:08.497Z,24.05
2019-02-15T13:42:36.630Z,24.10
2019-02-15T13:45:05.392Z,24.14
2019-02-15T13:47:35.210Z,24.16
2019-02-15T13:50:04.289Z,24.24
2019-02-15T13:52:32.281Z,24.24
2019-02-15T13:55:00.539Z,24.33
2019-02-15T13:57:28.838Z,24.35
2019-02-15T13:59:57.208Z,24.35
2019-02-15T14:02:25.218Z,24.39
2019-02-15T14:04:55.404Z,24.39
2019-02-15T14:07:23.437Z,24.47
2019-02-15T14:09:52.311Z,24.46
2019-02-15T14:12:20.297Z,24.46
2019-02-15T14:14:49.931Z,24.45
2019-02-15T14:17:18.241Z,24.47
2019-02-15T14:19:47.425Z,24.52
2019-02-15T14:22:15.731Z,24.59
2019-02-15T14:24:43.744Z,24.60
2019-02-15T14:27:11.883Z,24.65
2019-02-15T14:29:39.740Z,24.69
2019-02-15T14:32:09.028Z,24.69
2019-02-15T14:34:38.013Z,24.77
2019-02-15T14:37:06.019Z,24.74
2019-02-15T14:39:34.925Z,24.78
2019-02-15T14:42:02.633Z,24.78
2019-02-15T14:44:31.428Z,24.82
2019-02-15T14:46:59.440Z,24.89
2019-02-15T14:49:28.833Z,24.91
2019-02-15T14:51:56.766Z,24.92
2019-02-15T14:54:24.903Z,24.87
2019-02-15T14:56:53.409Z,24.83
2019-02-15T14:59:21.793Z,24.82
2019-02-15T15:01:50.386Z,24.78
2019-02-15T15:04:19.186Z,24.80
2019-02-15T15:06:47.152Z,24.80
2019-02-15T15:09:15.682Z,24.78
2019-02-15T15:11:43.635Z,24.83
2019-02-15T15:14:11.869Z,24.71
2019-02-15T15:16:39.986Z,24.68
2019-02-15T15:19:11.057Z,24.64
2019-02-15T15:21:39.153Z,24.54
2019-02-15T15:24:09.043Z,24.54
2019-02-15T15:26:37.492Z,24.63
2019-02-15T15:29:05.649Z,24.63
2019-02-15T15:31:34.144Z,24.61
2019-02-15T15:34:04.617Z,24.62
2019-02-15T15:36:33.307Z,24.62
2019-02-15T15:39:02.451Z,24.52
2019-02-15T15:41:30.997Z,24.55
2019-02-15T15:44:03.608Z,24.52
2019-02-15T15:46:32.328Z,24.53
2019-02-15T15:49:00.341Z,24.57
2019-02-15T15:51:28.146Z,24.58
2019-02-15T15:53:56.772Z,24.60
2019-02-15T15:56:24.848Z,24.59
2019-02-15T15:58:53.267Z,24.55
2019-02-15T16:01:23.073Z,24.58
2019-02-15T16:03:51.257Z,24.54
2019-02-15T16:06:24.474Z,24.49
2019-02-15T16:08:49.546Z,24.46
2019-02-15T16:11:17.767Z,24.34
2019-02-15T16:13:46.754Z,24.38
2019-02-15T16:16:15.486Z,24.35
2019-02-15T16:18:44.839Z,24.30
2019-02-15T16:22:02.583Z,24.31
2019-02-15T16:24:28.885Z,24.43
2019-02-15T16:26:56.448Z,24.35
2019-02-15T16:29:26.006Z,24.32
2019-02-15T16:31:53.967Z,24.22
2019-02-15T16:34:22.188Z,24.20
2019-02-15T16:36:49.962Z,24.19
2019-02-15T16:39:18.171Z,24.12
2019-02-15T16:41:47.146Z,24.08
2019-02-15T16:44:16.985Z,24.06
2019-02-15T16:46:45.893Z,24.03
2019-02-15T16:49:14.186Z,23.99
2019-02-15T16:51:42.082Z,24.01
2019-02-15T16:54:11.861Z,23.95
2019-02-15T16:56:39.590Z,23.90
2019-02-15T16:59:07.347Z,23.87
2019-02-15T17:01:35.335Z,23.81
2019-02-15T17:04:03.009Z,23.79
2019-02-15T17:06:30.850Z,23.74
2019-02-15T17:08:58.522Z,23.71
2019-02-15T17:11:26.946Z,23.63
2019-02-15T17:13:54.900Z,23.62
2019-02-15T17:16:23.075Z,23.62
2019-02-15T17:18:52.246Z,23.61
2019-02-15T17:21:20.985Z,23.63
2019-02-15T17:23:49.248Z,23.60
2019-02-15T17:26:17.550Z,23.58
2019-02-15T17:28:45.995Z,23.58
2019-02-15T17:31:14.066Z,23.57
2019-02-15T17:33:41.797Z,23.61
2019-02-15T17:36:09.783Z,23.49
2019-02-15T17:38:37.980Z,23.52
2019-02-15T17:41:06.046Z,23.47
2019-02-15T17:43:34.015Z,23.44
2019-02-15T17:46:02.472Z,23.44
2019-02-15T17:48:30.536Z,23.39
2019-02-15T17:50:58.551Z,23.38
2019-02-15T17:53:26.135Z,23.38
2019-02-15T17:55:54.906Z,23.34
2019-02-15T17:58:23.345Z,23.30
2019-02-15T18:00:51.825Z,23.30
2019-02-15T18:03:19.472Z,23.33
2019-02-15T18:05:47.159Z,23.31
2019-02-15T18:08:15.415Z,23.29
2019-02-15T18:10:42.955Z,23.30
2019-02-15T18:13:10.501Z,23.24
2019-02-15T18:15:38.884Z,23.27
2019-02-15T18:18:06.544Z,23.26
2019-02-15T18:20:34.375Z,23.22
2019-02-15T18:23:02.759Z,23.16
2019-02-15T18:25:30.407Z,23.14
2019-02-15T18:27:59.641Z,23.17
2019-02-15T18:30:28.976Z,23.14
2019-02-15T18:32:56.898Z,23.13
2019-02-15T18:35:24.912Z,23.11
2019-02-15T18:37:54.053Z,23.05
2019-02-15T18:40:22.060Z,23.06
2019-02-15T18:42:50.650Z,23.07
2019-02-15T18:45:18.364Z,23.03
2019-02-15T18:47:46.067Z,23.04
2019-02-15T18:50:14.258Z,23.06
2019-02-15T18:52:41.933Z,23.03
2019-02-15T18:55:11.654Z,23.04
2019-02-15T18:57:39.410Z,23.04
2019-02-15T19:00:10.574Z,23.03
2019-02-15T19:02:40.259Z,22.94
2019-02-15T19:05:10.036Z,22.93
2019-02-15T19:07:37.852Z,22.89
2019-02-15T19:10:07.731Z,22.93
2019-02-15T19:12:35.882Z,22.88
2019-02-15T19:15:04.121Z,22.84
2019-02-15T19:17:32.847Z,22.82
2019-02-15T19:20:00.542Z,22.85
2019-02-15T19:22:28.666Z,22.87
2019-02-15T19:24:56.946Z,22.87
2019-02-15T19:27:25.047Z,22.85
2019-02-15T19:29:53.616Z,22.82
2019-02-15T19:32:25.046Z,22.83
2019-02-15T19:34:54.435Z,22.80
2019-02-15T19:37:22.394Z,22.76
2019-02-15T19:39:56.464Z,22.81
2019-02-15T19:42:24.417Z,22.77
2019-02-15T19:44:52.919Z,22.74
2019-02-15T19:47:20.804Z,22.71
2019-02-15T19:49:49.630Z,22.71
2019-02-15T19:52:18.827Z,22.69
2019-02-15T19:54:47.079Z,22.68
2019-02-15T19:57:15.555Z,22.68
2019-02-15T19:59:53.191Z,22.66
2019-02-15T20:02:13.493Z,22.67
2019-02-15T20:04:41.401Z,22.68
2019-02-15T20:07:10.001Z,22.67
2019-02-15T20:09:38.021Z,22.64
2019-02-15T20:12:05.442Z,22.49
2019-02-15T20:14:33.701Z,22.54
2019-02-15T20:17:01.751Z,22.55
2019-02-15T20:19:29.829Z,22.47
2019-02-15T20:21:58.302Z,22.53
2019-02-15T20:24:28.039Z,22.53
2019-02-15T20:26:56.365Z,22.58
2019-02-15T20:29:24.120Z,22.61
2019-02-15T20:31:52.211Z,22.59
2019-02-15T20:34:19.912Z,22.60
2019-02-15T20:36:47.550Z,22.53
2019-02-15T20:39:16.033Z,22.53
2019-02-15T20:41:43.440Z,22.42
2019-02-15T20:44:10.916Z,22.52
2019-02-15T20:46:38.783Z,22.47
2019-02-15T20:49:06.871Z,22.48
2019-02-15T20:51:34.457Z,22.53
2019-02-15T20:54:02.230Z,22.50
2019-02-15T20:56:30.169Z,22.56
2019-02-15T20:58:59.691Z,22.56
2019-02-15T21:01:27.750Z,22.54
2019-02-15T21:03:56.104Z,22.58
2019-02-15T21:06:24.126Z,22.40
2019-02-15T21:08:52.266Z,22.32
2019-02-15T21:11:20.607Z,22.64
2019-02-15T21:13:48.596Z,22.72
2019-02-15T21:16:16.807Z,22.62
2019-02-15T21:18:44.384Z,22.58
2019-02-15T21:21:12.104Z,22.66
2019-02-15T21:23:40.072Z,22.60
2019-02-15T21:26:08.369Z,22.61
2019-02-15T21:28:36.009Z,22.56
2019-02-15T21:31:04.359Z,22.56
2019-02-15T21:33:32.118Z,22.51
2019-02-15T21:36:00.518Z,22.52
2019-02-15T21:38:28.181Z,22.51
2019-02-15T21:40:56.009Z,22.54
2019-02-15T21:43:23.553Z,22.55
2019-02-15T21:45:52.421Z,22.57
2019-02-15T21:48:21.789Z,22.55
2019-02-15T21:50:49.598Z,22.52
2019-02-15T21:53:18.907Z,22.54
2019-02-15T21:55:47.050Z,22.52
2019-02-15T21:58:15.553Z,22.50
2019-02-15T22:00:43.724Z,22.57
2019-02-15T22:03:11.780Z,22.50
2019-02-15T22:05:39.617Z,22.41
2019-02-15T22:08:08.430Z,22.62
2019-02-15T22:10:37.947Z,22.65
2019-02-15T22:13:06.547Z,22.55
2019-02-15T22:15:34.918Z,22.54
2019-02-15T22:18:04.013Z,22.57
2019-02-15T22:20:31.566Z,22.57
2019-02-15T22:23:00.755Z,22.57
2019-02-15T22:25:29.995Z,22.58
2019-02-15T22:27:59.140Z,22.57
2019-02-15T22:30:26.950Z,22.50
2019-02-15T22:32:54.696Z,22.47
2019-02-15T22:35:23.591Z,22.47
2019-02-15T22:37:52.334Z,22.50
2019-02-15T22:40:37.946Z,22.46
2019-02-15T22:43:16.267Z,22.49
2019-02-15T22:45:44.787Z,22.49
2019-02-15T22:48:14.064Z,22.53
2019-02-15T22:50:42.006Z,22.45
2019-02-15T22:53:09.588Z,22.44
2019-02-15T22:55:38.026Z,22.43
2019-02-15T22:58:06.133Z,22.36
2019-02-15T23:01:01.878Z,22.39
2019-02-15T23:03:31.396Z,22.41
2019-02-15T23:05:59.431Z,22.34
2019-02-15T23:08:27.661Z,22.30
2019-02-15T23:10:55.326Z,22.38
2019-02-15T23:13:23.503Z,22.30
2019-02-15T23:15:51.995Z,22.29
2019-02-15T23:18:20.368Z,22.36
2019-02-15T23:20:49.159Z,22.32
2019-02-15T23:23:19.054Z,22.30
2019-02-15T23:25:46.972Z,22.29
2019-02-15T23:28:14.688Z,22.32
2019-02-15T23:30:42.862Z,22.25
2019-02-15T23:33:12.554Z,22.23
2019-02-15T23:35:40.887Z,22.20
2019-02-15T23:38:09.556Z,22.18
2019-02-15T23:40:37.918Z,22.24
2019-02-15T23:43:06.938Z,22.22
2019-02-15T23:45:36.429Z,22.22
2019-02-15T23:48:04.523Z,22.19
2019-02-15T23:50:32.449Z,22.17
2019-02-15T23:53:00.244Z,22.19
2019-02-15T23:55:28.978Z,22.25
2019-02-15T23:57:57.595Z,22.20
